Airfield :
LOGIN :

Register | Disclaimer

   EN    FR    IT 

 










Legend :    VFR   Marginal VFR   IFR   Intensive IFR   Very Intensive IFR
Visi :
Ceiling :
>= 8 km
>= 3000ft
5 to 8 km
1000 to 3000 ft
1500m to 5 km
500 to 1000 ft
800 to 1500m
200 to 500 ft
< 800m
< 200 ft
Symbols :   Thunderstorms  Fog  Heavy snow  Heavy precipitations  Wind > 20 kt
SIGMETs :     Misc.  Thunderstorms  Icing  Turbulence  Mountain Waves  Volcanic Ashes






- Airport Elevation : 249 ft


EGOS - RAF Shawbury

CURRENT METAR :
  • 231350Z 36010KT 9999 BKN038 11/03 Q1023 NOSIG RMK BLU BLU

EXPIRED METARs :
  • 231320Z 35008KT 9999 BKN037 11/04 Q1024 NOSIG RMK BLU BLU
  • 231250Z 35007KT 9999 BKN034 10/03 Q1024 NOSIG RMK BLU BLU
  • 231220Z 35009KT 9999 BKN034 10/04 Q1024 NOSIG RMK BLU BLU
  • 231150Z 01008KT 9999 BKN030 10/03 Q1024 NOSIG RMK BLU BLU
  • 231120Z 02009KT 9999 BKN030 09/03 Q1024 NOSIG RMK BLU BLU
  • 231050Z 36007KT 9999 BKN030 BKN300 10/04 Q1024 NOSIG RMK BLU BLU
  • 231020Z 01008KT 9999 BKN030 09/03 Q1025 NOSIG RMK BLU BLU
  • 230950Z 03008KT 9999 BKN028 09/03 Q1025 NOSIG RMK BLU BLU
  • 230920Z 34008KT 9999 SCT027 08/04 Q1025 NOSIG RMK BLU BLU
  • 230850Z 36008KT 9999 SCT023 08/03 Q1025 TEMPO FEW023 RMK WHT TEMPO BLU

TAF AMD TAF EGOS
Valid from the 23 at 11:00 until the 23 at 18:00 UTC


231104Z 2311/2318 01008KT 9999 SCT020 BKN030
BECMG 2312/2313 FEW022 BKN030



MET'MAP, your aeronautical weather chart ! - Copyright ORBIFLY December 2007 - Disclaimer

ORBIFLY MET'MAP TEAM :

Programming & Development : Alexandra Zaïnal
Original concept : Baudouin d'Aumeries
Technical & hardware support : Manuel Goepfert
Assistance : Marc-Olivier Méhu




SOURCES & CREDITS :

   NOAA